Weather observations for the past three days for
Troy, Oakland/Troy Airport
Imperial (Metric)
Date Time (edt) Wind (mph) Vis. (mi.) Weather Sky Cond. Temperature (ºF) Relative Humidity Wind Chill (°F) Heat Index (°F) Pressure Precipitation (in)
Air Dwpt 6 hour altimeter (in) sea level (mb) 1 hr 3 hr 6 hr
Max. Min.
07 03:15 W 2 10.00 Mostly Cloudy BKN080 44.6 30.2 57% 29.89 0.0
07 02:55 W 3 10.00 Fair CLR 46.4 30.2 53% 29.89 0.0
07 02:35 W 2 10.00 Fair CLR 46.4 30.2 53% 29.89 0.0
07 02:15 W 3 10.00 Partly Cloudy FEW085 SCT100 48.2 30.2 50% 29.89 0.0
07 01:55 W 3 10.00 Overcast SCT085 OVC100 48.2 30.2 52.5 48 50% 29.89 0.0
07 01:35 W 5 10.00 Overcast SCT085 OVC110 48.2 30.2 50% 47 29.9 0.0
07 01:15 W 3 10.00 Overcast BKN085 OVC100 48.2 30.2 50% 29.9 0.0
07 00:55 SW 3 10.00 Overcast SCT085 OVC100 48.2 28.4 46% 29.9 0.0
07 00:35 SW 3 10.00 Overcast OVC100 50 28.4 43% 29.9 0.0
07 00:15 SW 5 10.00 Overcast OVC100 50 28.4 43% 49 29.91 0.0
06 23:55 SW 3 10.00 Overcast OVC100 50 28.4 43% 29.91 0.0
06 23:35 SW 3 10.00 Overcast OVC100 50 28.4 43% 29.91 0.0
06 23:15 SW 5 10.00 Mostly Cloudy BKN090 50 30.2 47% 49 29.91 0.0
06 22:55 W 5 10.00 Overcast OVC090 50 30.2 47% 49 29.92 0.0
06 22:35 SW 3 10.00 Mostly Cloudy BKN090 51.8 30.2 44% 29.91 0.0
06 22:15 SW 5 10.00 Overcast FEW070 OVC090 51.8 30.2 44% 29.91 0.0
06 21:55 SW 5 10.00 Overcast BKN070 OVC090 51.8 28.4 41% 29.91 0.0
06 21:35 SW 3 10.00 Overcast BKN070 OVC090 51.8 28.4 41% 29.9 0.0
06 21:15 SW 3 10.00 Overcast SCT070 OVC080 51.8 28.4 41% 29.9 0.0
06 20:55 SW 3 10.00 Overcast OVC080 51.8 26.6 38% 29.9 0.0
06 20:35 W 3 10.00 Overcast OVC080 51.8 26.6 38% 29.9 0.0
06 20:15 W 5 10.00 Overcast OVC080 51.8 26.6 38% 29.9 0.0
06 19:55 W 7 10.00 Overcast OVC080 51.8 26.6 54 51.1 38% 29.9 0.0
06 19:35 NW 3 10.00 Overcast OVC080 51.8 26.6 38% 29.89 0.0
06 19:15 NW 6 10.00 Overcast OVC080 51.8 26.6 38% 29.89 0.0
06 18:55 NW 5 10.00 Mostly Cloudy BKN080 51.8 26.6 38% 29.89 0.0
06 18:35 Vrbl 2 10.00 A Few Clouds FEW080 53.6 26.6 35% 29.89 0.0
06 18:15 W 8 10.00 A Few Clouds FEW080 53.6 26.6 35% 29.9 0.0
06 17:55 NW 10 10.00 Partly Cloudy SCT070 53.6 28.4 38% 29.9 0.0
06 17:35 Vrbl 3 10.00 Mostly Cloudy BKN070 53.6 26.6 35% 29.89 0.0
06 17:15 W 7 10.00 Overcast OVC060 53.6 28.4 38% 29.89 0.0
06 16:55 NW 12 10.00 Overcast OVC060 53.6 26.6 35% 29.89 0.0
06 16:35 NW 9 10.00 Mostly Cloudy BKN060 53.6 28.4 38% 29.89 0.0
06 16:15 NW 13 10.00 Overcast OVC060 51.8 28.4 41% 29.9 0.0
06 15:55 NW 9 10.00 Overcast OVC060 51.8 28.4 41% 29.89 0.0
06 15:35 W 12 10.00 Mostly Cloudy BKN060 51.8 26.6 38% 29.9 0.0
06 15:15 W 12 10.00 Mostly Cloudy BKN060 51.8 28.4 41% 29.9 0.0
06 14:55 W 10 10.00 Partly Cloudy SCT060 51.8 28.4 41% 29.89 0.0
06 14:35 NW 8 10.00 Mostly Cloudy BKN050 51.8 28.4 41% 29.89 0.0
06 14:15 W 12 G 17 10.00 Mostly Cloudy BKN050 51.8 30.2 44% 29.9 0.0
06 13:55 Vrbl 5 10.00 Mostly Cloudy BKN060 51.8 28.4 52.5 44.8 41% 29.9 0.0
06 13:35 W 10 G 17 10.00 Overcast OVC060 51.8 28.4 41% 29.9 0.0
06 13:15 NW 10 10.00 Overcast OVC060 51.8 28.4 41% 29.9 0.0
06 12:55 W 8 10.00 Overcast OVC060 51.8 28.4 41% 29.89 0.0
06 12:35 W 8 10.00 Partly Cloudy SCT060 51.8 28.4 41% 29.9 0.0
06 12:15 NW 9 G 18 10.00 Fair CLR 51.8 26.6 38% 29.89 0.0
06 11:55 W 7 10.00 Fair CLR 51.8 26.6 38% 29.89 0.0
06 11:35 NW 12 10.00 A Few Clouds FEW043 50 30.2 47% 46 29.89 0.0
06 11:15 NW 8 10.00 Fair CLR 51.8 30.2 44% 29.89 0.0
06 10:55 N 6 10.00 A Few Clouds FEW036 50 33.8 54% 48 29.88 0.0
06 10:35 NE 6 10.00 Fair CLR 50 33.8 54% 48 29.88 0.0
06 10:15 Vrbl 3 10.00 Fair CLR 48.2 32 54% 29.88 0.0
06 09:55 Vrbl 7 10.00 Fair CLR 48.2 32 54% 46 29.88 0.0
06 09:35 NE 8 10.00 Fair CLR 46.4 32 57% 43 29.87 0.0
06 09:15 Vrbl 7 10.00 Fair CLR 46.4 32 57% 43 29.86 0.0
06 08:55 NE 9 10.00 Fair CLR 46.4 32 57% 42 29.85 0.0
06 08:35 N 6 10.00 Fair CLR 46.4 30.2 53% 44 29.84 0.0
06 08:15 N 7 10.00 Fair CLR 44.6 32 61% 41 29.84 0.0
06 07:55 Vrbl 3 10.00 Fair CLR 44.6 32 50.2 44.2 61% 29.83 0.0
06 07:35 N 6 10.00 Fair CLR 44.6 32 61% 42 29.83 0.0
06 07:15 Vrbl 3 10.00 A Few Clouds FEW100 44.6 32 61% 29.82 0.0
06 06:55 N 5 10.00 Mostly Cloudy BKN100 44.6 33.8 66% 43 29.81 0.0
06 06:35 N 7 10.00 Overcast OVC100 46.4 33.8 62% 43 29.8 0.0
06 06:15 Vrbl 5 10.00 Overcast OVC090 46.4 35.6 66% 45 29.79 0.0
06 05:55 Vrbl 5 10.00 Overcast BKN090 OVC120 46.4 33.8 62% 45 29.79 0.0
06 05:35 N 5 10.00 Mostly Cloudy BKN090 BKN120 48.2 33.8 58% 47 29.78 0.0
06 05:15 N 8 10.00 A Few Clouds FEW120 48.2 32 54% 45 29.78 0.0
06 04:55 N 5 10.00 Fair CLR 48.2 32 54% 47 29.77 0.0
06 04:35 N 6 10.00 A Few Clouds FEW110 48.2 32 54% 46 29.77 0.0
06 04:15 N 6 10.00 Mostly Cloudy BKN110 48.2 32 54% 46 29.77 0.0
06 03:55 NW 7 10.00 Overcast OVC100 50 30.2 47% 48 29.78 0.0
06 03:35 NW 6 10.00 Overcast OVC110 50 30.2 47% 48 29.77 0.0
06 03:15 N 5 10.00 Overcast OVC090 50 30.2 47% 49 29.77 0.0
06 02:55 NW 5 10.00 Overcast OVC100 50 30.2 47% 49 29.77 0.0
06 02:35 W 5 10.00 Overcast OVC100 50 32 50% 49 29.77 0.0
06 02:15 W 3 10.00 Overcast BKN090 OVC110 50 32 50% 29.78 0.0
06 01:55 SW 5 10.00 Overcast BKN090 OVC110 50 32 54.5 50 50% 49 29.78 0.0
06 01:35 SW 3 10.00 Overcast OVC080 50 32 50% 29.77 0.0
06 01:15 W 3 10.00 Overcast OVC080 50 30.2 47% 29.78 0.0
06 00:55 W 5 10.00 Overcast OVC080 50 30.2 47% 49 29.78 0.0
06 00:35 W 5 10.00 Overcast OVC080 51.8 30.2 44% 29.78 0.0
06 00:15 Vrbl 3 10.00 Overcast OVC080 51.8 30.2 44% 29.77 0.0
05 23:55 W 3 10.00 Overcast OVC080 51.8 30.2 44% 29.77 0.0
05 23:35 SW 3 10.00 Overcast OVC080 51.8 30.2 44% 29.78 0.0
05 23:15 W 3 10.00 Overcast OVC080 51.8 28.4 41% 29.78 0.0
05 22:55 W 6 10.00 Overcast OVC080 51.8 28.4 41% 29.78 0.0
05 22:35 W 7 10.00 Overcast OVC080 51.8 28.4 41% 29.78 0.0
05 22:15 W 6 10.00 Overcast OVC080 53.6 28.4 38% 29.78 0.0
05 21:55 W 7 10.00 Overcast OVC080 53.6 26.6 35% 29.77 0.0
05 21:35 W 7 10.00 Overcast OVC090 53.6 26.6 35% 29.76 0.0
05 21:15 W 8 10.00 Overcast BKN090 OVC110 53.6 28.4 38% 29.76 0.0
05 20:55 W 6 10.00 Overcast OVC110 53.6 30.2 41% 29.76 0.0
05 20:35 W 5 10.00 Overcast OVC110 53.6 32 44% 29.76 0.0
05 20:15 W 6 10.00 Mostly Cloudy BKN110 53.6 32 44% 29.75 0.0
05 19:55 W 6 10.00 Partly Cloudy SCT120 53.6 32 55.6 50.9 44% 29.74 0.0
05 19:35 W 6 10.00 Fair CLR 55.4 33.8 44% 29.74 0.0
05 19:15 Vrbl 6 10.00 Partly Cloudy SCT075 55.4 33.8 44% 29.73 0.0
05 18:55 W 6 10.00 Partly Cloudy FEW075 SCT090 55.4 35.6 47% 29.74 0.0
05 18:35 W 8 10.00 Partly Cloudy SCT090 55.4 41 59% 29.74 0.0
05 18:15 W 9 10.00 Mostly Cloudy SCT080 BKN090 55.4 41 59% 29.74 0.0
05 17:55 W 8 10.00 Mostly Cloudy BKN085 BKN100 55.4 41 59% 29.74 0.0
05 17:35 Vrbl 7 10.00 Partly Cloudy SCT085 SCT100 55.4 42.8 63% 29.74 0.0
05 17:15 W 8 10.00 Mostly Cloudy SCT070 BKN085 55.4 42.8 63% 29.74 0.0
05 16:55 W 7 10.00 Overcast OVC070 53.6 42.8 67% 29.74 0.0
05 16:35 SW 10 10.00 Overcast OVC070 53.6 42.8 67% 29.75 0.0
05 16:15 SW 10 10.00 Overcast OVC070 53.6 42.8 67% 29.75 0.0
05 15:55 SW 7 10.00 Overcast FEW060 OVC070 53.6 42.8 67% 29.75 0.0
05 15:35 SW 10 10.00 Overcast FEW060 OVC070 53.6 42.8 67% 29.75 0.0
05 15:15 SW 7 10.00 Overcast FEW060 OVC070 51.8 42.8 72% 29.76 0.0
05 14:55 SW 12 10.00 Overcast OVC070 51.8 44.6 77% 29.76 0.0
05 14:35 SW 12 10.00 Overcast SCT050 OVC080 51.8 44.6 77% 29.75 0.0
05 14:15 SW 12 G 17 10.00 Overcast OVC050 51.8 44.6 77% 29.74 0.0
05 13:55 SW 7 10.00 Light Rain OVC050 51.8 46.4 61.3 50.5 82% 29.74 0.0 0.01
05 13:35 SW 7 10.00 Light Rain BKN050 OVC070 51.8 46.4 82% 29.73 0.0
05 13:15 SW 12 10.00 Light Rain BKN048 OVC080 51.8 46.4 82% 29.74 0.0
05 12:55 SW 6 10.00 Light Rain BKN048 BKN070 OVC090 51.8 46.4 82% 29.74 0.0 0.04
05 12:35 W 12 8.00 Light Rain FEW034 SCT055 OVC070 53.6 44.6 72% 29.74 0.0
05 12:15 NW 10 10.00 Light Rain FEW060 BKN070 OVC080 55.4 44.6 67% 29.74 0.0
05 11:55 W 12 G 17 10.00 Light Rain FEW060 OVC085 57.2 41 55% 29.72 0.0
05 11:35 W 9 10.00 Overcast OVC085 59 37.4 45% 29.71 0.0
05 11:15 W 9 10.00 Overcast OVC085 59 39.2 48% 29.7 0.0
05 10:55 W 9 10.00 Overcast OVC085 59 42.8 55% 29.7 0.0
05 10:35 W 9 10.00 Overcast OVC085 60.8 42.8 52% 29.69 0.0
05 10:15 W 13 G 16 10.00 Mostly Cloudy BKN085 60.8 41 48% 29.69 0.0
05 09:55 W 9 10.00 Partly Cloudy FEW085 SCT110 60.8 41 48% 29.67 0.0
05 09:35 W 8 10.00 Partly Cloudy SCT085 60.8 41 48% 29.64 0.0
05 09:15 W 9 10.00 Fair CLR 60.8 44.6 55% 29.65 0.0
05 08:55 W 9 10.00 Fair CLR 59 48.2 68% 29.63 0.0
05 08:35 W 10 G 18 10.00 Fair CLR 59 50 72% 29.63 0.0
05 08:15 W 8 G 16 10.00 Fair CLR 59 50 72% 29.63 0.0
05 07:55 W 9 10.00 Fair CLR 57.2 50 59.7 57.2 77% 29.63 0.0
05 07:35 W 10 10.00 Fair CLR 57.2 50 77% 29.62 0.0
05 07:15 W 8 10.00 Fair CLR 57.2 51.8 82% 29.6 0.0
05 06:55 W 8 10.00 Fair CLR 57.2 51.8 82% 29.59 0.0
05 06:35 W 9 10.00 Fair CLR 57.2 51.8 82% 29.57 0.0
05 06:15 SW 10 G 18 10.00 Partly Cloudy SCT075 57.2 51.8 82% 29.56 0.0
05 05:55 SW 8 G 18 10.00 Fair CLR 59 51.8 77% 29.57 0.0
05 05:15 SW 15 10.00 Fair CLR 59 51.8 77% 29.56 0.0
05 04:55 SW 12 G 16 10.00 Fair CLR 59 53.6 82% 29.56 0.0
05 04:35 SW 13 G 17 10.00 A Few Clouds FEW070 59 53.6 82% 29.55 0.0
05 04:15 SW 13 G 20 10.00 Partly Cloudy SCT070 59 53.6 82% 29.54 0.0
05 03:55 SW 12 10.00 Fair CLR 59 53.6 82% 29.54 0.0
05 03:35 SW 9 10.00 A Few Clouds FEW120 59 53.6 82% 29.52 0.0
05 03:15 SW 8 10.00 Mostly Cloudy BKN120 59 53.6 82% 29.51 0.0
05 02:55 SW 10 G 20 10.00 Partly Cloudy FEW085 SCT110 59 51.8 77% 29.52 0.0
05 02:35 SW 12 G 17 10.00 Light Rain BKN080 OVC110 59 53.6 82% 29.53 0.0
05 02:15 SW 10 G 17 10.00 Mostly Cloudy FEW075 BKN090 BKN120 59 53.6 82% 29.54 0.0
05 01:55 SW 10 10.00 A Few Clouds FEW095 FEW120 59 53.6 68 58.6 82% 29.52 0.0 0.02
05 01:35 SW 9 10.00 Light Rain BKN085 59 53.6 82% 29.53 0.0
05 01:15 W 8 G 25 10.00 Light Rain OVC085 60.8 53.6 77% 29.54 0.0
05 00:55 SW 22 G 40 10.00 Light Rain and Breezy SCT085 OVC110 64.4 51.8 64% 29.56 0.0
05 00:35 SW 22 G 30 10.00 Mostly Cloudy and Breezy BKN120 68 51.8 56% 29.54 0.0
05 00:15 SW 15 G 22 10.00 Partly Cloudy SCT120 66.2 51.8 60% 29.53 0.0
04 23:55 SW 15 G 24 10.00 A Few Clouds FEW120 66.2 51.8 60% 29.52 0.0
04 23:35 SW 16 10.00 Fair CLR 64.4 51.8 64% 29.52 0.0
04 23:15 S 10 10.00 Fair CLR 64.4 53.6 68% 29.53 0.0
04 22:55 SW 9 10.00 Fair CLR 62.6 53.6 73% 29.54 0.0
04 22:35 SW 9 10.00 Fair CLR 62.6 55.4 77% 29.54 0.0
04 22:15 SW 10 10.00 Partly Cloudy SCT065 SCT085 SCT120 62.6 55.4 77% 29.54 0.0
04 21:55 SW 5 10.00 Overcast BKN065 BKN095 OVC120 62.6 55.4 77% 29.54 0.0 0.06
04 21:15 SW 8 10.00 Overcast OVC070 64.4 51.8 64% 29.53 0.0
04 20:55 SW 9 G 18 10.00 Mostly Cloudy BKN070 BKN090 BKN110 66.2 51.8 60% 29.53 0.0
04 20:35 SW 13 10.00 Partly Cloudy FEW055 FEW075 SCT100 64.4 51.8 64% 29.52 0.0
04 20:15 SW 16 G 28 10.00 Mostly Cloudy FEW055 SCT075 BKN100 66.2 51.8 60% 29.51 0.0
04 19:55 SW 16 G 35 10.00 Mostly Cloudy FEW060 SCT090 BKN110 66.2 50 76.8 68 56% 29.51 0.0
04 19:35 SW 10 G 20 10.00 Mostly Cloudy FEW065 SCT080 BKN110 75.2 48.2 39% 77 29.5 0.0
04 19:15 SW 10 G 21 10.00 Partly Cloudy SCT070 SCT100 75.2 48.2 39% 77 29.5 0.0
04 18:55 SW 14 G 20 10.00 Partly Cloudy SCT070 75.2 46.4 36% 77 29.49 0.0
04 18:35 W 14 G 20 10.00 A Few Clouds FEW075 FEW090 75.2 46.4 36% 77 29.5 0.0
04 18:15 SW 20 G 33 10.00 A Few Clouds FEW090 75.2 44.6 34% 77 29.51 0.0
04 17:55 SW 16 G 26 10.00 A Few Clouds FEW070 FEW085 77 44.6 32% 78 29.51 0.0
04 16:55 SW 16 G 26 10.00 Partly Cloudy SCT080 75.2 41 29% 77 29.53 0.0
04 16:35 SW 24 G 31 10.00 Mostly Cloudy and Breezy BKN080 77 41 28% 78 29.54 0.0
04 16:15 S 21 G 30 10.00 A Few Clouds and Breezy FEW085 75.2 41 29% 77 29.54 0.0
04 15:55 SW 21 G 32 10.00 Fair and Breezy CLR 77 39.2 26% 77 29.55 0.0
04 15:35 S 16 G 26 10.00 Fair CLR 77 39.2 26% 77 29.55 0.0
04 15:15 SW 18 G 26 10.00 Fair CLR 77 39.2 26% 77 29.56 0.0
04 14:55 SW 15 G 30 10.00 Fair CLR 77 41 28% 78 29.56 0.0
04 14:35 SW 15 G 28 10.00 Fair CLR 75.2 39.2 27% 77 29.57 0.0
04 14:15 SW 20 G 28 10.00 Fair CLR 75.2 39.2 27% 77 29.57 0.0
04 13:55 SW 16 G 28 10.00 Fair CLR 73.4 41 74.5 50.4 31% 29.58 0.0
04 13:35 SW 16 G 28 10.00 Fair CLR 73.4 41 31% 29.59 0.0
04 13:15 SW 17 G 23 10.00 Fair CLR 73.4 41 31% 29.6 0.0
04 12:55 SW 14 10.00 Fair CLR 71.6 42.8 36% 29.61 0.0
04 12:35 SW 13 G 20 10.00 Fair CLR 71.6 42.8 36% 29.62 0.0
04 12:15 SW 13 10.00 Fair CLR 69.8 42.8 38% 29.63 0.0
04 11:55 SW 15 G 18 10.00 Fair CLR 68 42.8 40% 29.63 0.0
04 11:35 SW 12 10.00 Fair CLR 66.2 42.8 43% 29.64 0.0
04 11:15 SW 10 G 16 10.00 Fair CLR 64.4 44.6 49% 29.65 0.0
04 10:55 SW 12 G 17 10.00 Fair CLR 62.6 42.8 49% 29.65 0.0
04 10:35 SW 10 10.00 Fair CLR 60.8 42.8 52% 29.65 0.0
04 10:15 SW 8 10.00 Fair CLR 59 42.8 55% 29.65 0.0
04 09:55 SW 13 G 16 10.00 Fair CLR 57.2 42.8 59% 29.66 0.0
04 09:35 SW 9 10.00 Fair CLR 57.2 42.8 59% 29.67 0.0
04 09:15 SW 12 G 17 10.00 Fair CLR 55.4 42.8 63% 29.67 0.0
04 08:55 SW 9 G 21 10.00 Fair CLR 53.6 41 63% 29.67 0.0
04 08:35 SW 14 G 18 10.00 Fair CLR 51.8 41 67% 29.68 0.0
04 08:15 SW 14 G 20 10.00 Fair CLR 51.8 41 67% 29.68 0.0
04 07:55 SW 10 10.00 Fair CLR 50 41 52.2 48 71% 46 29.68 0.0
04 07:35 SW 10 G 18 10.00 A Few Clouds FEW075 50 41 71% 46 29.68 0.0
04 07:15 SW 12 10.00 Fair CLR 48.2 41 76% 44 29.68 0.0
04 06:55 SW 9 10.00 Fair CLR 48.2 39.2 71% 45 29.68 0.0
04 06:35 SW 10 10.00 Fair CLR 48.2 39.2 71% 44 29.68 0.0
04 06:15 SW 9 10.00 Fair CLR 48.2 39.2 71% 45 29.67 0.0
04 05:55 SW 8 10.00 Fair CLR 48.2 39.2 71% 45 29.67 0.0
04 05:35 SW 10 10.00 Fair CLR 48.2 39.2 71% 44 29.67 0.0
04 05:15 SW 9 10.00 Fair CLR 48.2 39.2 71% 45 29.68 0.0
04 04:55 SW 9 G 17 10.00 Fair CLR 50 39.2 67% 47 29.68 0.0
04 04:35 SW 12 10.00 Fair CLR 50 39.2 67% 46 29.69 0.0
04 04:15 SW 13 G 17 10.00 Fair CLR 50 39.2 67% 46 29.69 0.0
04 03:55 SW 13 G 20 10.00 Fair CLR 50 39.2 67% 46 29.7 0.0
04 03:35 SW 13 G 18 10.00 Fair CLR 50 39.2 67% 46 29.7 0.0
Date Time (edt) Wind (mph) Vis. (mi.) Weather Sky Cond. Air Dwpt Max. Min. Relative Humidity Wind Chill (°F) Heat Index (°F) altimeter (in) sea level (mb) 1 hr 3 hr 6 hr
6 hour
Temperature (ºF) Pressure Precipitation (in)